Raton, NM

4:27 AM MDT on October 21, 2014 (GMT -0600)
Near Historic Downtown | Change Station
CLOSE
Current Station
Personal Weather Station
Location: Raton, NM
Elevation: 6709 ft
Nearby Weather Stations

Elev 6709 ft 36.90 °N, 104.44 °W | Updated 2 minutes ago

Clear
Clear
42.9 °F
Feels Like 43 °F
N
0.0
Wind Variable Wind from ESE

Today
High -- | Low -- °F
--% Chance of Precip.
Yesterday
High -- | Low -- °F
Precip. -- in
7:11 AM 6:14 PM
Waning Crescent, 6% visible
Pressure 30.01 in
Visibility 10.0 miles
Clouds Clear
Windchill 43 °F
Dew Point 41 °F
Humidity 93%
Rainfall 0.00 in
Snow Depth Not available.
UV 0 out of 12
Pollen 2.30 out of 12
Air Quality Not available.
Flu Activity Sporadic
METAR KRTN 210953Z AUTO 04004KT 10SM CLR 05/03 A3018 RMK AO2 SLP160 T00500028

More Conditions Fewer Conditions

Pressure 30.01 in
Visibility 10.0 miles
Clouds Clear
Windchill 43 °F
Dew Point 41 °F
Humidity 93%
Rainfall 0.00 in
Snow Depth Not available.
UV 0 out of 12
Pollen 2.30 out of 12
Air Quality Not available.
Flu Activity Sporadic
METAR KRTN 210953Z AUTO 04004KT 10SM CLR 05/03 A3018 RMK AO2 SLP160 T00500028

More Conditions Fewer Conditions

10-Day Weather Forecast

Almanac

Astronomy

Oct. 21, 2014 Rise Set
Actual Time 7:11 AM MDT 6:14 PM MDT
Civil Twilight 6:45 AM MDT 6:40 PM MDT
Nautical Twilight 6:15 AM MDT 7:10 PM MDT
Astronomical Twilight 5:45 AM MDT 7:40 PM MDT
Moon 5:01 AM MDT 5:06 PM MDT
Length of Visible Light 11h 54m
Length of Day
11h 02m
Tomorrow will be 2m 12s shorter.
Waning Crescent, 6% of the Moon is Illuminated
Today
Waning Crescent
Oct 23
New
Oct 30
First Quarter
Nov 6
Full
Nov 14
Last Quarter

Today's Extremes

State Highs State Lows

Community

WunderPhotos

Upload Photos

1,763,625 photos uploaded!

Nearby

Snow Depth

Station Depth Elevation
North Costilla 1 in 10600 ft
Red River Pass #2 0 in 9850 ft
Gallegos Peak 1 in 9800 ft
Hopewell 0 in 10000 ft
Wesner Springs 3 in 11120 ft

Earthquake Activity

City Distance Mag. Time & Date
Trinidad, Colorado 22 miles 2.7 10:33 PM MDT
2014-10-20
Trinidad, Colorado 24 miles 2.5 10:01 PM MDT
2014-10-19
Minimum magnitude displayed is 2.5.

Coastal Water Temperatures

Place Temperature
No Stations Reporting

Nearby Weather Stations